createdAt,value
2022-11-15T00:02:24.488Z,51.70
2022-11-15T00:04:51.112Z,51.70
2022-11-15T00:07:40.425Z,51.70
2022-11-15T00:10:04.446Z,51.80
2022-11-15T00:12:31.191Z,51.80
2022-11-15T00:14:57.758Z,51.70
2022-11-15T00:17:24.329Z,51.70
2022-11-15T00:19:50.890Z,51.80
2022-11-15T00:22:17.448Z,51.80
2022-11-15T00:24:44.008Z,51.90
2022-11-15T00:27:10.637Z,51.90
2022-11-15T00:29:39.514Z,51.90
2022-11-15T00:32:09.133Z,51.90
2022-11-15T00:34:37.958Z,51.90
2022-11-15T00:37:06.589Z,52.00
2022-11-15T00:39:33.149Z,51.80
2022-11-15T00:41:59.715Z,51.90
2022-11-15T00:44:26.377Z,51.80
2022-11-15T00:46:52.945Z,51.90
2022-11-15T00:49:19.493Z,52.00
2022-11-15T00:51:46.056Z,52.00
2022-11-15T00:54:12.633Z,51.90
2022-11-15T00:56:39.201Z,51.90
2022-11-15T00:59:05.825Z,52.10
2022-11-15T01:01:32.376Z,51.90
2022-11-15T01:04:01.421Z,52.00
2022-11-15T01:06:30.421Z,51.90
2022-11-15T01:08:59.463Z,51.80
2022-11-15T01:11:26.082Z,52.00
2022-11-15T01:13:52.654Z,52.00
2022-11-15T01:16:19.577Z,52.00
2022-11-15T01:18:46.568Z,51.80
2022-11-15T01:21:17.238Z,51.90
2022-11-15T01:23:43.808Z,52.00
2022-11-15T01:26:11.921Z,51.80
2022-11-15T01:28:38.994Z,51.90
2022-11-15T01:31:06.359Z,51.90
2022-11-15T01:33:34.050Z,51.90
2022-11-15T01:36:03.896Z,51.90
2022-11-15T01:38:30.476Z,51.90
2022-11-15T01:40:57.014Z,52.00
2022-11-15T01:43:27.889Z,51.90
2022-11-15T01:46:05.684Z,52.00
2022-11-15T01:48:35.473Z,51.90
2022-11-15T01:51:02.249Z,51.90
2022-11-15T01:53:29.075Z,51.90
2022-11-15T01:55:55.746Z,51.90
2022-11-15T01:58:22.336Z,51.80
2022-11-15T02:00:53.203Z,51.90
2022-11-15T02:03:19.899Z,51.80
2022-11-15T02:05:49.373Z,51.90
2022-11-15T02:08:21.003Z,51.90
2022-11-15T02:10:48.080Z,52.00
2022-11-15T02:13:15.721Z,51.90
2022-11-15T02:16:03.347Z,51.90
2022-11-15T02:18:33.693Z,52.00
2022-11-15T02:21:10.917Z,52.00
2022-11-15T02:23:52.873Z,51.90
2022-11-15T02:26:19.410Z,51.80
2022-11-15T02:28:57.982Z,52.00
2022-11-15T02:31:29.472Z,51.90
2022-11-15T02:33:59.108Z,51.80
2022-11-15T02:36:25.645Z,51.90
2022-11-15T02:39:04.638Z,51.80
2022-11-15T02:41:50.228Z,51.80
2022-11-15T02:44:18.700Z,51.80
2022-11-15T02:47:09.788Z,51.80
2022-11-15T02:49:36.394Z,51.80
2022-11-15T02:52:02.972Z,51.70
2022-11-15T02:54:30.411Z,51.80
2022-11-15T02:57:16.542Z,51.80
2022-11-15T02:59:43.352Z,51.80
2022-11-15T03:02:28.728Z,51.70
2022-11-15T03:05:04.934Z,51.80
2022-11-15T03:07:33.877Z,51.80
2022-11-15T03:10:07.593Z,51.90
2022-11-15T03:12:38.474Z,51.80
2022-11-15T03:15:13.531Z,51.70
2022-11-15T03:17:42.208Z,51.80
2022-11-15T03:20:09.145Z,51.70
2022-11-15T03:22:36.923Z,51.70
2022-11-15T03:25:05.378Z,51.80
2022-11-15T03:27:32.985Z,51.70
2022-11-15T03:30:00.829Z,51.70
2022-11-15T03:32:28.713Z,51.70
2022-11-15T03:35:08.549Z,51.70
2022-11-15T03:37:37.191Z,51.70
2022-11-15T03:40:03.874Z,51.70
2022-11-15T03:42:41.103Z,51.70
2022-11-15T03:45:18.015Z,51.70
2022-11-15T03:47:46.266Z,51.80
2022-11-15T03:50:13.778Z,51.70
2022-11-15T03:52:40.532Z,51.70
2022-11-15T03:55:07.661Z,51.70
2022-11-15T03:57:34.223Z,51.70
2022-11-15T04:00:00.823Z,51.70
2022-11-15T04:02:27.392Z,51.70
2022-11-15T04:04:53.943Z,51.70
2022-11-15T04:07:20.615Z,51.70
2022-11-15T04:10:06.606Z,51.70
2022-11-15T04:12:33.784Z,51.70
2022-11-15T04:15:09.773Z,51.70
2022-11-15T04:17:36.896Z,51.60
2022-11-15T04:20:23.310Z,51.50
2022-11-15T04:23:08.630Z,51.40
2022-11-15T04:25:35.186Z,51.10
2022-11-15T04:28:01.804Z,50.70
2022-11-15T04:30:28.571Z,50.40
2022-11-15T04:32:55.181Z,50.20
2022-11-15T04:35:21.743Z,50.20
2022-11-15T04:37:49.608Z,50.20
2022-11-15T04:40:16.284Z,50.20
2022-11-15T04:42:45.505Z,50.20
2022-11-15T04:45:12.113Z,50.10
2022-11-15T04:47:38.705Z,50.40
2022-11-15T04:50:05.505Z,50.50
2022-11-15T04:52:32.047Z,50.60
2022-11-15T04:55:06.706Z,50.70
2022-11-15T04:57:34.676Z,50.80
2022-11-15T05:00:01.252Z,50.90
2022-11-15T05:02:47.863Z,50.90
2022-11-15T05:05:14.500Z,51.00
2022-11-15T05:07:41.064Z,51.00
2022-11-15T05:10:07.749Z,51.00
2022-11-15T05:12:34.294Z,51.00
2022-11-15T05:15:00.943Z,51.00
2022-11-15T05:17:27.485Z,51.10
2022-11-15T05:19:54.120Z,51.00
2022-11-15T05:22:20.704Z,51.10
2022-11-15T05:24:47.273Z,51.00
2022-11-15T05:27:13.886Z,51.00
2022-11-15T05:29:40.477Z,51.00
2022-11-15T05:32:07.103Z,51.10
2022-11-15T05:34:33.671Z,51.10
2022-11-15T05:37:00.244Z,51.10
2022-11-15T05:39:27.080Z,51.10
2022-11-15T05:41:54.576Z,51.20
2022-11-15T05:44:21.999Z,51.30
2022-11-15T05:46:48.558Z,51.20
2022-11-15T05:49:17.345Z,51.30
2022-11-15T05:51:43.964Z,51.20
2022-11-15T05:54:10.836Z,51.80
2022-11-15T05:56:37.400Z,51.30
2022-11-15T05:59:04.043Z,51.20
2022-11-15T06:01:30.601Z,51.30
2022-11-15T06:03:57.148Z,51.30
2022-11-15T06:06:23.822Z,51.40
2022-11-15T06:08:50.476Z,50.80
2022-11-15T06:11:17.098Z,51.20
2022-11-15T06:13:43.709Z,51.40
2022-11-15T06:16:10.318Z,51.40
2022-11-15T06:18:37.043Z,51.60
2022-11-15T06:21:03.579Z,50.90
2022-11-15T06:23:32.405Z,51.50
2022-11-15T06:25:59.407Z,51.70
2022-11-15T06:28:26.264Z,51.80
2022-11-15T06:30:53.415Z,51.80
2022-11-15T06:33:20.028Z,51.80
2022-11-15T06:35:46.569Z,51.80
2022-11-15T06:38:13.231Z,51.80
2022-11-15T06:40:39.987Z,51.80
2022-11-15T06:43:06.700Z,51.80
2022-11-15T06:45:33.319Z,51.80
2022-11-15T06:47:59.882Z,51.70
2022-11-15T06:50:26.469Z,51.80
2022-11-15T06:52:53.057Z,51.70
2022-11-15T06:55:19.621Z,51.70
2022-11-15T06:57:49.677Z,51.70
2022-11-15T07:00:16.840Z,51.70
2022-11-15T07:02:43.388Z,51.70
2022-11-15T07:05:09.946Z,51.70
2022-11-15T07:07:36.788Z,51.70
2022-11-15T07:10:03.614Z,51.70
2022-11-15T07:12:30.197Z,51.80
2022-11-15T07:14:56.790Z,51.70
2022-11-15T07:17:23.330Z,51.70
2022-11-15T07:19:49.889Z,51.70
2022-11-15T07:22:16.480Z,51.70
2022-11-15T07:24:43.048Z,51.70
2022-11-15T07:27:09.826Z,51.70
2022-11-15T07:29:36.683Z,51.70
2022-11-15T07:32:03.273Z,51.70
2022-11-15T07:34:29.842Z,51.70
2022-11-15T07:36:56.400Z,52.00
2022-11-15T07:39:22.950Z,51.80
2022-11-15T07:41:50.463Z,51.70
2022-11-15T07:44:17.014Z,51.70
2022-11-15T07:46:43.576Z,51.80
2022-11-15T07:49:10.164Z,51.80
2022-11-15T07:51:36.707Z,51.80
2022-11-15T07:54:03.372Z,51.80
2022-11-15T07:56:29.923Z,51.80
2022-11-15T07:58:56.555Z,51.80
2022-11-15T08:01:25.843Z,51.80
2022-11-15T08:03:52.438Z,51.80
2022-11-15T08:06:19.012Z,51.80
2022-11-15T08:08:45.585Z,51.80
2022-11-15T08:11:12.293Z,51.70
2022-11-15T08:13:38.869Z,51.80
2022-11-15T08:16:06.588Z,51.70
2022-11-15T08:18:33.397Z,51.80
2022-11-15T08:21:00.758Z,51.70
2022-11-15T08:23:27.433Z,51.70
2022-11-15T08:25:53.994Z,51.70
2022-11-15T08:28:20.561Z,51.70
2022-11-15T08:30:47.158Z,51.70
2022-11-15T08:33:14.256Z,51.70
2022-11-15T08:35:43.843Z,51.70
2022-11-15T08:38:10.437Z,51.70
2022-11-15T08:40:37.115Z,51.60
2022-11-15T08:43:03.977Z,51.60
2022-11-15T08:45:31.002Z,52.10
2022-11-15T08:47:57.761Z,51.60
2022-11-15T08:50:24.404Z,51.50
2022-11-15T08:52:50.997Z,51.50
2022-11-15T08:55:17.866Z,51.50
2022-11-15T08:57:44.620Z,51.60
2022-11-15T09:00:12.754Z,51.50
2022-11-15T09:02:39.752Z,51.60
2022-11-15T09:05:06.765Z,51.50
2022-11-15T09:07:33.401Z,51.50
2022-11-15T09:10:00.025Z,51.50
2022-11-15T09:12:26.821Z,51.50
2022-11-15T09:14:53.472Z,51.60
2022-11-15T09:17:24.413Z,51.50
2022-11-15T09:19:51.703Z,51.50
2022-11-15T09:22:18.780Z,51.50
2022-11-15T09:24:45.439Z,51.50
2022-11-15T09:27:12.695Z,51.40
2022-11-15T09:29:39.264Z,51.50
2022-11-15T09:32:05.860Z,52.10
2022-11-15T09:34:32.459Z,51.50
2022-11-15T09:36:59.039Z,51.40
2022-11-15T09:39:25.718Z,51.40
2022-11-15T09:41:52.297Z,51.40
2022-11-15T09:44:25.583Z,51.40
2022-11-15T09:46:56.197Z,51.40
2022-11-15T09:49:22.747Z,52.00
2022-11-15T09:51:53.410Z,51.40
2022-11-15T09:57:28.522Z,51.40
2022-11-15T09:59:55.340Z,51.40
2022-11-15T10:02:24.734Z,51.30
2022-11-15T10:04:51.752Z,51.30
2022-11-15T10:07:26.966Z,51.00
2022-11-15T10:09:53.788Z,50.80
2022-11-15T10:12:20.352Z,50.50
2022-11-15T10:14:51.625Z,50.20
2022-11-15T10:17:23.883Z,50.30
2022-11-15T10:19:58.571Z,50.10
2022-11-15T10:22:29.774Z,49.80
2022-11-15T10:25:01.530Z,50.10
2022-11-15T10:27:28.093Z,50.20
2022-11-15T10:29:54.652Z,50.20
2022-11-15T10:32:21.598Z,50.10
2022-11-15T10:34:48.710Z,50.40
2022-11-15T10:37:15.332Z,50.50
2022-11-15T10:39:41.966Z,50.60
2022-11-15T10:42:18.459Z,50.80
2022-11-15T10:44:45.285Z,50.80
2022-11-15T10:47:28.314Z,50.80
2022-11-15T10:49:56.577Z,50.90
2022-11-15T10:52:23.693Z,51.00
2022-11-15T10:54:55.472Z,51.00
2022-11-15T10:57:23.223Z,51.00
2022-11-15T10:59:50.638Z,51.00
2022-11-15T11:02:26.335Z,51.00
2022-11-15T11:04:52.961Z,51.00
2022-11-15T11:07:23.755Z,51.00
2022-11-15T11:09:57.762Z,51.00
2022-11-15T11:12:33.605Z,51.10
2022-11-15T11:15:06.851Z,51.10
2022-11-15T11:17:53.769Z,51.10
2022-11-15T11:20:29.510Z,51.00
2022-11-15T11:23:04.003Z,51.10
2022-11-15T11:25:41.614Z,51.10
2022-11-15T11:28:15.887Z,51.10
2022-11-15T11:30:42.422Z,51.10
2022-11-15T11:33:14.045Z,51.20
2022-11-15T11:35:40.720Z,51.20
2022-11-15T11:38:16.999Z,51.20
2022-11-15T11:41:02.371Z,51.30
2022-11-15T11:43:35.959Z,51.20
2022-11-15T11:46:14.761Z,51.20
2022-11-15T11:48:41.649Z,51.20
2022-11-15T11:51:13.291Z,51.20
2022-11-15T11:53:51.014Z,51.20
2022-11-15T11:56:29.929Z,51.30
2022-11-15T11:58:58.993Z,51.10
2022-11-15T12:01:26.820Z,51.20
2022-11-15T12:03:53.610Z,51.20
2022-11-15T12:06:38.938Z,51.20
2022-11-15T12:09:08.538Z,51.20
2022-11-15T12:11:53.740Z,51.30
2022-11-15T12:14:40.646Z,51.30
2022-11-15T12:17:09.359Z,51.40
2022-11-15T12:19:36.025Z,51.30
2022-11-15T12:22:04.358Z,51.30
2022-11-15T12:24:33.358Z,51.40
2022-11-15T12:27:04.668Z,51.30
2022-11-15T12:29:41.797Z,51.30
2022-11-15T12:32:27.313Z,51.30
2022-11-15T12:34:53.859Z,51.30
2022-11-15T12:37:45.415Z,51.30
2022-11-15T12:40:26.337Z,51.30
2022-11-15T12:43:00.397Z,51.30
2022-11-15T12:45:37.693Z,51.40
2022-11-15T12:48:16.310Z,51.20
2022-11-15T12:50:51.874Z,51.10
2022-11-15T12:53:27.732Z,50.80
2022-11-15T12:56:12.915Z,50.80
2022-11-15T12:58:46.812Z,50.20
2022-11-15T13:01:34.239Z,50.30
2022-11-15T13:04:09.857Z,50.10
2022-11-15T13:06:40.658Z,50.10
2022-11-15T13:09:27.171Z,50.20
2022-11-15T13:11:53.785Z,50.30
2022-11-15T13:14:40.274Z,50.20
2022-11-15T13:17:25.359Z,50.20
2022-11-15T13:19:54.667Z,50.20
2022-11-15T13:22:40.089Z,50.50
2022-11-15T13:25:15.297Z,50.50
2022-11-15T13:27:41.847Z,50.70
2022-11-15T13:30:15.605Z,50.70
2022-11-15T13:32:42.164Z,50.80
2022-11-15T13:35:08.731Z,50.90
2022-11-15T13:37:35.406Z,50.90
2022-11-15T13:40:20.068Z,50.90
2022-11-15T13:42:46.619Z,50.90
2022-11-15T13:45:16.372Z,51.00
2022-11-15T13:47:43.003Z,51.00
2022-11-15T13:50:12.488Z,51.00
2022-11-15T13:52:40.451Z,51.00
2022-11-15T13:55:10.293Z,51.00
2022-11-15T13:57:43.873Z,51.10
2022-11-15T14:00:31.069Z,51.10
2022-11-15T14:02:57.696Z,51.10
2022-11-15T14:05:24.919Z,51.20
2022-11-15T14:08:00.645Z,51.10
2022-11-15T14:10:33.544Z,51.30
2022-11-15T14:13:00.198Z,51.30
2022-11-15T14:15:27.072Z,51.30
2022-11-15T14:17:53.698Z,51.30
2022-11-15T14:20:31.662Z,51.20
2022-11-15T14:22:59.207Z,51.30
2022-11-15T14:25:26.553Z,51.20
2022-11-15T14:28:08.580Z,51.20
2022-11-15T14:30:35.260Z,51.30
2022-11-15T14:33:01.872Z,51.20
2022-11-15T14:35:28.421Z,51.30
2022-11-15T14:37:57.602Z,51.30
2022-11-15T14:40:24.265Z,51.30
2022-11-15T14:42:53.787Z,51.30
2022-11-15T14:45:21.158Z,51.40
2022-11-15T14:47:47.857Z,51.40
2022-11-15T14:50:15.088Z,51.30
2022-11-15T14:52:41.792Z,51.40
2022-11-15T14:55:13.983Z,51.30
2022-11-15T14:57:40.926Z,51.40
2022-11-15T15:00:09.323Z,51.40
2022-11-15T15:02:35.950Z,51.40
2022-11-15T15:05:04.146Z,51.40
2022-11-15T15:07:30.779Z,51.30
2022-11-15T15:10:32.343Z,51.40
2022-11-15T15:12:46.801Z,51.20
2022-11-15T15:15:14.367Z,50.80
2022-11-15T15:17:40.957Z,50.70
2022-11-15T15:20:07.816Z,50.40
2022-11-15T15:22:34.389Z,50.20
2022-11-15T15:25:00.950Z,50.20
2022-11-15T15:27:27.507Z,50.00
2022-11-15T15:29:54.074Z,50.20
2022-11-15T15:32:20.639Z,50.20
2022-11-15T15:34:47.218Z,50.40
2022-11-15T15:37:20.200Z,50.10
2022-11-15T15:39:46.831Z,50.20
2022-11-15T15:42:13.389Z,50.40
2022-11-15T15:44:39.930Z,50.50
2022-11-15T15:47:19.551Z,50.60
2022-11-15T15:49:46.616Z,50.70
2022-11-15T15:52:13.266Z,50.80
2022-11-15T15:54:40.053Z,50.50
2022-11-15T15:57:06.755Z,50.80
2022-11-15T15:59:33.344Z,50.90
2022-11-15T16:01:59.948Z,50.90
2022-11-15T16:04:26.934Z,51.10
2022-11-15T16:06:55.895Z,51.10
2022-11-15T16:09:45.119Z,51.10
2022-11-15T16:12:11.839Z,51.10
2022-11-15T16:14:38.406Z,51.20
2022-11-15T16:17:05.161Z,51.00
2022-11-15T16:19:32.306Z,51.20
2022-11-15T16:21:58.932Z,51.30
2022-11-15T16:24:25.496Z,51.10
2022-11-15T16:26:52.164Z,51.20
2022-11-15T16:29:18.726Z,51.20
2022-11-15T16:31:45.343Z,51.20
2022-11-15T16:34:14.604Z,51.20
2022-11-15T16:36:41.241Z,51.20
2022-11-15T16:39:09.620Z,51.30
2022-11-15T16:41:36.387Z,51.20
2022-11-15T16:44:02.947Z,51.30
2022-11-15T16:46:30.116Z,51.30
2022-11-15T16:48:56.748Z,51.10
2022-11-15T16:51:23.416Z,51.30
2022-11-15T16:53:50.088Z,51.20
2022-11-15T16:56:24.231Z,51.20
2022-11-15T16:58:50.965Z,51.20
2022-11-15T17:01:50.556Z,51.20
2022-11-15T17:04:18.205Z,51.30
2022-11-15T17:06:45.815Z,51.30
2022-11-15T17:09:17.060Z,51.30
2022-11-15T17:11:43.672Z,51.30
2022-11-15T17:14:10.553Z,51.30
2022-11-15T17:16:38.236Z,51.30
2022-11-15T17:19:04.992Z,51.20
2022-11-15T17:21:33.804Z,51.20
2022-11-15T17:24:00.657Z,51.20
2022-11-15T17:26:33.010Z,51.30
2022-11-15T17:29:02.396Z,51.10
2022-11-15T17:31:30.850Z,51.00
2022-11-15T17:33:57.514Z,51.20
2022-11-15T17:36:24.106Z,50.80
2022-11-15T17:38:57.947Z,50.50
2022-11-15T17:41:26.028Z,49.60
2022-11-15T17:43:53.284Z,50.10
2022-11-15T17:46:20.787Z,50.50
2022-11-15T17:48:47.538Z,50.40
2022-11-15T17:51:14.801Z,49.20
2022-11-15T17:53:41.903Z,50.60
2022-11-15T17:56:11.363Z,48.00
2022-11-15T17:58:37.914Z,46.50
2022-11-15T18:01:05.418Z,48.40
2022-11-15T18:03:35.677Z,49.90
2022-11-15T18:06:02.504Z,50.70
2022-11-15T18:08:29.177Z,51.60
2022-11-15T18:11:05.398Z,51.70
2022-11-15T18:13:32.250Z,51.80
2022-11-15T18:16:02.648Z,51.80
2022-11-15T18:18:29.880Z,51.90
2022-11-15T18:21:00.173Z,52.00
2022-11-15T18:23:26.881Z,52.00
2022-11-15T18:25:53.655Z,52.10
2022-11-15T18:28:20.291Z,52.10
2022-11-15T18:30:47.110Z,52.20
2022-11-15T18:33:13.853Z,52.10
2022-11-15T18:35:40.500Z,52.20
2022-11-15T18:38:07.166Z,52.10
2022-11-15T18:40:33.830Z,52.00
2022-11-15T18:43:00.550Z,52.10
2022-11-15T18:45:27.153Z,52.00
2022-11-15T18:47:53.835Z,52.10
2022-11-15T18:50:20.398Z,52.20
2022-11-15T18:52:47.037Z,52.10
2022-11-15T18:55:14.419Z,52.00
2022-11-15T18:57:41.615Z,52.10
2022-11-15T19:00:09.195Z,52.00
2022-11-15T19:02:35.756Z,52.10
2022-11-15T19:05:02.637Z,52.10
2022-11-15T19:07:29.313Z,52.10
2022-11-15T19:09:56.373Z,52.00
2022-11-15T19:12:23.073Z,52.00
2022-11-15T19:14:49.751Z,51.90
2022-11-15T19:17:16.446Z,52.00
2022-11-15T19:19:43.069Z,52.00
2022-11-15T19:22:09.716Z,52.00
2022-11-15T19:24:36.350Z,52.00
2022-11-15T19:27:02.986Z,52.00
2022-11-15T19:29:32.280Z,52.00
2022-11-15T19:31:58.923Z,52.00
2022-11-15T19:34:25.533Z,52.00
2022-11-15T19:36:55.231Z,52.00
2022-11-15T19:39:21.952Z,52.00
2022-11-15T19:41:50.163Z,52.00
2022-11-15T19:44:16.867Z,52.10
2022-11-15T19:46:44.361Z,52.10
2022-11-15T19:49:11.619Z,52.10
2022-11-15T19:51:38.939Z,52.00
2022-11-15T19:54:09.774Z,52.10
2022-11-15T19:56:36.611Z,52.10
2022-11-15T19:59:03.503Z,52.00
2022-11-15T20:01:31.115Z,52.10
2022-11-15T20:03:59.423Z,52.20
2022-11-15T20:06:33.187Z,52.10
2022-11-15T20:08:59.890Z,52.00
2022-11-15T20:11:26.552Z,52.70
2022-11-15T20:13:57.399Z,52.00
2022-11-15T20:16:24.032Z,52.00
2022-11-15T20:18:50.705Z,52.00
2022-11-15T20:21:17.423Z,52.00
2022-11-15T20:23:44.078Z,52.00
2022-11-15T20:26:11.094Z,52.00
2022-11-15T20:28:37.994Z,52.10
2022-11-15T20:31:04.802Z,52.00
2022-11-15T20:33:31.510Z,52.10
2022-11-15T20:35:58.129Z,52.00
2022-11-15T20:38:24.817Z,52.10
2022-11-15T20:40:56.058Z,52.00
2022-11-15T20:43:25.733Z,52.00
2022-11-15T20:45:52.372Z,52.00
2022-11-15T20:48:19.113Z,52.00
2022-11-15T20:50:45.992Z,51.90
2022-11-15T20:53:13.389Z,51.90
2022-11-15T20:55:41.143Z,51.60
2022-11-15T20:58:08.144Z,51.40
2022-11-15T21:00:46.929Z,51.30
2022-11-15T21:03:15.067Z,51.00
2022-11-15T21:05:43.633Z,50.90
2022-11-15T21:08:10.891Z,50.50
2022-11-15T21:10:56.160Z,50.50
2022-11-15T21:13:22.855Z,50.40
2022-11-15T21:15:49.561Z,50.30
2022-11-15T21:18:16.148Z,50.60
2022-11-15T21:20:42.799Z,50.70
2022-11-15T21:23:09.540Z,50.80
2022-11-15T21:25:36.153Z,51.00
2022-11-15T21:28:02.957Z,51.10
2022-11-15T21:30:29.687Z,51.20
2022-11-15T21:32:56.372Z,51.80
2022-11-15T21:35:23.839Z,51.20
2022-11-15T21:37:56.154Z,51.40
2022-11-15T21:40:23.763Z,51.50
2022-11-15T21:42:50.597Z,51.50
2022-11-15T21:45:17.243Z,51.50
2022-11-15T21:47:46.388Z,51.40
2022-11-15T21:50:13.591Z,51.50
2022-11-15T21:52:40.723Z,51.50
2022-11-15T21:55:07.867Z,51.50
2022-11-15T21:57:34.436Z,51.40
2022-11-15T22:00:19.950Z,51.40
2022-11-15T22:02:46.524Z,51.50
2022-11-15T22:05:13.076Z,51.60
2022-11-15T22:07:39.746Z,51.50
2022-11-15T22:10:06.564Z,51.60
2022-11-15T22:12:33.131Z,51.60
2022-11-15T22:14:59.781Z,51.60
2022-11-15T22:17:46.318Z,51.60
2022-11-15T22:20:42.509Z,51.60
2022-11-15T22:22:59.597Z,51.60
2022-11-15T22:25:26.290Z,51.60
2022-11-15T22:27:52.995Z,51.60
2022-11-15T22:30:19.791Z,51.60
2022-11-15T22:32:46.470Z,51.60
2022-11-15T22:35:13.114Z,51.70
2022-11-15T22:37:39.756Z,51.70
2022-11-15T22:40:06.673Z,51.70
2022-11-15T22:42:33.275Z,51.70
2022-11-15T22:44:59.879Z,51.70
2022-11-15T22:47:26.465Z,51.60
2022-11-15T22:49:53.028Z,51.60
2022-11-15T22:52:19.662Z,51.70
2022-11-15T22:54:46.759Z,51.70
2022-11-15T22:57:13.343Z,51.80
2022-11-15T22:59:41.093Z,51.70
2022-11-15T23:02:07.777Z,51.70
2022-11-15T23:04:34.345Z,51.70
2022-11-15T23:07:00.966Z,51.70
2022-11-15T23:09:27.680Z,51.70
2022-11-15T23:12:12.965Z,51.70
2022-11-15T23:14:39.528Z,51.70
2022-11-15T23:17:06.078Z,51.70
2022-11-15T23:19:32.730Z,51.70
2022-11-15T23:22:18.170Z,51.70
2022-11-15T23:24:44.742Z,51.70
2022-11-15T23:27:15.188Z,51.70
2022-11-15T23:30:00.402Z,51.70
2022-11-15T23:32:45.929Z,51.80
2022-11-15T23:35:12.585Z,51.70
2022-11-15T23:37:39.219Z,51.80
2022-11-15T23:40:06.164Z,51.70
2022-11-15T23:42:32.750Z,51.80
2022-11-15T23:44:59.306Z,51.80
2022-11-15T23:47:25.971Z,51.70
2022-11-15T23:49:52.534Z,51.70
2022-11-15T23:52:19.152Z,51.70
2022-11-15T23:54:47.013Z,51.70
2022-11-15T23:57:13.661Z,51.70
2022-11-15T23:59:40.431Z,51.60
